Time;durP1;ratioP1;P1;durP2;ratioP2;P2;SDS_P1;SDS_P2;PMS_P1;PMS_P2;Temp;Humidity;BMP_temperature;BMP_pressure;BME280_temperature;BME280_humidity;BME280_pressure;Samples;Min_cycle;Max_cycle;Signal;HPM_P1;HPM_P2
2021/08/09 00:00:20;;;;;;;5.30;2.13;;;13.70;99.90;;;;;;5014202;28;20490;-76
2021/08/09 00:03:05;;;;;;;7.77;2.27;;;13.60;99.90;;;;;;5007289;28;20444;-74
2021/08/09 00:05:51;;;;;;;3.10;1.97;;;13.70;99.90;;;;;;5021913;28;20839;-74
2021/08/09 00:08:37;;;;;;;5.83;2.23;;;13.70;99.90;;;;;;5016772;28;20423;-74
2021/08/09 00:11:24;;;;;;;5.37;2.20;;;13.90;99.90;;;;;;5014054;28;20501;-74
2021/08/09 00:14:10;;;;;;;3.83;2.07;;;13.90;99.90;;;;;;5015964;28;20452;-75
2021/08/09 00:16:55;;;;;;;5.10;2.27;;;14.00;99.90;;;;;;5015884;28;20517;-75
2021/08/09 00:19:41;;;;;;;2.73;2.37;;;13.90;99.90;;;;;;5002806;28;20536;-74
2021/08/09 00:22:26;;;;;;;5.13;2.10;;;13.90;99.90;;;;;;5024106;28;20799;-75
2021/08/09 00:25:13;;;;;;;3.03;2.10;;;13.80;99.90;;;;;;5013875;28;21003;-74
2021/08/09 00:28:00;;;;;;;6.40;2.60;;;13.90;99.90;;;;;;5012210;28;20449;-75
2021/08/09 00:30:45;;;;;;;2.37;1.70;;;13.90;99.90;;;;;;5023075;28;21084;-75
2021/08/09 00:33:31;;;;;;;3.53;1.80;;;13.90;99.90;;;;;;5010308;28;20451;-75
2021/08/09 00:36:16;;;;;;;4.70;1.90;;;13.90;99.90;;;;;;5020016;28;20535;-74
2021/08/09 00:39:02;;;;;;;7.90;2.53;;;13.80;99.90;;;;;;5020056;28;20472;-75
2021/08/09 00:41:48;;;;;;;3.80;2.03;;;13.80;99.90;;;;;;5014187;28;20407;-74
2021/08/09 00:44:35;;;;;;;3.67;2.10;;;13.80;99.90;;;;;;5020813;28;20419;-74
2021/08/09 00:47:20;;;;;;;2.60;1.93;;;13.80;99.90;;;;;;5015108;28;20476;-74
2021/08/09 00:50:07;;;;;;;4.30;2.00;;;13.70;99.90;;;;;;5018679;28;20502;-74
2021/08/09 00:52:53;;;;;;;3.60;2.60;;;13.70;99.90;;;;;;5023623;28;20539;-74
2021/08/09 00:55:42;;;;;;;4.37;2.47;;;13.60;99.90;;;;;;5013767;28;20525;-74
2021/08/09 00:58:28;;;;;;;3.27;2.10;;;13.50;99.90;;;;;;5017330;28;20497;-74
2021/08/09 01:01:15;;;;;;;5.53;2.33;;;13.40;99.90;;;;;;5024589;28;20531;-75
2021/08/09 01:04:03;;;;;;;5.23;2.30;;;13.50;99.90;;;;;;5019925;28;20445;-75
2021/08/09 01:06:49;;;;;;;5.80;1.90;;;13.40;99.90;;;;;;5015792;28;20468;-74
2021/08/09 01:09:44;;;;;;;4.80;2.07;;;13.50;99.90;;;;;;5023457;28;20503;-75
2021/08/09 01:12:36;;;;;;;2.80;1.60;;;13.50;99.90;;;;;;5011207;28;20503;-75
2021/08/09 01:15:29;;;;;;;5.70;2.00;;;13.30;99.90;;;;;;5018628;28;20580;-74
2021/08/09 01:18:19;;;;;;;5.80;2.50;;;13.20;99.90;;;;;;5010195;28;20428;-74
2021/08/09 01:21:06;;;;;;;8.90;2.50;;;13.00;99.90;;;;;;5016347;28;20436;-74
2021/08/09 01:23:56;;;;;;;3.17;2.00;;;12.90;99.90;;;;;;5020862;28;20973;-74
2021/08/09 01:26:50;;;;;;;4.47;1.90;;;13.00;99.90;;;;;;5016855;28;20430;-74
2021/08/09 01:29:40;;;;;;;5.23;2.03;;;13.00;99.90;;;;;;4994064;28;20487;-74
2021/08/09 01:32:27;;;;;;;2.90;1.90;;;13.00;99.90;;;;;;5018181;28;20456;-74
2021/08/09 01:35:15;;;;;;;2.47;2.03;;;13.00;99.90;;;;;;5021378;28;20484;-74
2021/08/09 01:38:04;;;;;;;4.47;2.00;;;13.00;99.90;;;;;;5018799;28;20443;-74
2021/08/09 01:40:50;;;;;;;5.97;1.90;;;13.10;99.90;;;;;;5015891;28;20441;-74
2021/08/09 01:43:36;;;;;;;4.27;2.37;;;13.10;99.90;;;;;;5013279;28;20403;-74
2021/08/09 01:46:24;;;;;;;7.50;1.90;;;13.00;99.90;;;;;;5012476;28;20582;-74
2021/08/09 01:49:11;;;;;;;4.67;1.63;;;13.00;99.90;;;;;;5009792;28;20424;-74
2021/08/09 01:51:58;;;;;;;4.03;2.20;;;13.10;99.90;;;;;;5015009;28;20404;-73
2021/08/09 01:54:44;;;;;;;2.43;1.80;;;13.00;99.90;;;;;;5013147;28;20444;-74
2021/08/09 01:57:30;;;;;;;2.13;1.50;;;13.00;99.90;;;;;;5020597;28;20531;-74
2021/08/09 02:00:17;;;;;;;3.27;1.90;;;13.00;99.90;;;;;;5022465;28;21055;-74
2021/08/09 02:03:05;;;;;;;2.10;1.73;;;13.00;99.90;;;;;;5020201;28;20842;-74
2021/08/09 02:05:51;;;;;;;4.33;2.30;;;12.90;99.90;;;;;;5021986;28;20460;-73
2021/08/09 02:08:37;;;;;;;5.07;2.13;;;12.80;99.90;;;;;;5021172;28;20470;-74
2021/08/09 02:11:31;;;;;;;4.00;2.00;;;12.80;99.90;;;;;;5009814;28;20817;-74
2021/08/09 02:14:21;;;;;;;2.00;1.33;;;12.80;99.90;;;;;;5015234;28;20444;-74
2021/08/09 02:17:14;;;;;;;2.23;1.70;;;12.70;99.90;;;;;;5020049;28;20954;-74
2021/08/09 02:20:04;;;;;;;5.60;2.30;;;12.70;99.90;;;;;;5018973;28;20622;-74
2021/08/09 02:22:54;;;;;;;6.77;2.30;;;12.60;99.90;;;;;;5015837;28;20839;-74
2021/08/09 02:25:43;;;;;;;2.63;1.53;;;12.60;99.90;;;;;;5011348;28;20492;-74
2021/08/09 02:28:30;;;;;;;4.03;2.50;;;12.60;99.90;;;;;;5021669;28;20529;-75
2021/08/09 02:31:18;;;;;;;2.90;1.80;;;12.60;99.90;;;;;;5010699;28;20423;-74
2021/08/09 02:34:05;;;;;;;3.30;1.50;;;12.70;99.90;;;;;;5008646;28;20471;-74
2021/08/09 02:36:52;;;;;;;2.43;1.90;;;12.60;99.90;;;;;;5021754;28;20690;-74
2021/08/09 02:39:40;;;;;;;4.50;2.33;;;12.60;99.90;;;;;;5020214;28;20955;-74
2021/08/09 02:42:26;;;;;;;5.30;1.73;;;12.60;99.90;;;;;;5010035;28;20604;-75
2021/08/09 02:45:12;;;;;;;2.93;1.70;;;12.60;99.90;;;;;;5018959;28;20553;-74
2021/08/09 02:47:59;;;;;;;2.83;2.00;;;12.60;99.90;;;;;;5013229;28;20468;-73
2021/08/09 02:50:46;;;;;;;5.70;2.20;;;12.50;99.90;;;;;;5015428;28;20986;-75
2021/08/09 02:53:33;;;;;;;4.23;2.00;;;12.50;99.90;;;;;;5015852;28;21029;-74
2021/08/09 02:56:24;;;;;;;2.47;1.93;;;12.50;99.90;;;;;;5019945;28;20524;-74
2021/08/09 02:59:10;;;;;;;2.67;1.80;;;12.60;99.90;;;;;;5012884;28;20487;-74
2021/08/09 03:01:55;;;;;;;8.83;1.93;;;12.70;99.90;;;;;;5013341;28;20488;-74
2021/08/09 03:04:42;;;;;;;6.63;2.40;;;12.60;99.90;;;;;;5018484;28;20523;-74
2021/08/09 03:07:30;;;;;;;3.07;1.90;;;12.60;99.90;;;;;;5013724;28;20623;-74
2021/08/09 03:10:17;;;;;;;2.30;1.60;;;12.60;99.90;;;;;;5014656;28;20449;-74
2021/08/09 03:13:08;;;;;;;5.10;1.73;;;12.50;99.90;;;;;;5010961;28;20427;-74
2021/08/09 03:15:54;;;;;;;3.50;1.87;;;12.40;99.90;;;;;;5008141;28;20628;-74
2021/08/09 03:18:39;;;;;;;3.70;1.87;;;12.40;99.90;;;;;;5020460;28;20524;-74
2021/08/09 03:21:25;;;;;;;5.97;1.83;;;12.30;99.90;;;;;;5019587;28;20580;-76
2021/08/09 03:24:10;;;;;;;2.97;1.93;;;12.20;99.90;;;;;;5011732;28;21064;-74
2021/08/09 03:26:58;;;;;;;7.10;2.27;;;12.30;99.90;;;;;;5013108;28;20970;-75
2021/08/09 03:29:44;;;;;;;3.50;2.00;;;12.40;99.90;;;;;;5018237;28;20961;-74
2021/08/09 03:32:29;;;;;;;3.80;3.10;;;12.50;99.90;;;;;;5020576;28;20425;-74
2021/08/09 03:35:15;;;;;;;3.60;1.80;;;12.60;99.90;;;;;;5024769;28;20956;-74
2021/08/09 03:38:01;;;;;;;3.47;1.80;;;12.70;99.90;;;;;;5019287;28;20514;-74
2021/08/09 03:40:46;;;;;;;2.70;1.93;;;12.70;99.90;;;;;;5015819;28;20457;-75
2021/08/09 03:43:33;;;;;;;4.70;1.80;;;12.70;99.90;;;;;;5011019;28;20581;-74
2021/08/09 03:46:19;;;;;;;4.57;1.90;;;12.70;99.90;;;;;;5012482;28;20441;-74
2021/08/09 03:49:07;;;;;;;2.80;2.03;;;12.70;99.90;;;;;;5023018;28;20971;-74
2021/08/09 03:51:53;;;;;;;3.90;2.23;;;12.60;99.90;;;;;;5018518;28;20443;-75
2021/08/09 03:54:39;;;;;;;4.40;2.10;;;12.60;99.90;;;;;;5013364;28;21387;-75
2021/08/09 03:57:26;;;;;;;5.63;2.20;;;12.70;99.90;;;;;;5019732;28;20627;-74
2021/08/09 04:00:14;;;;;;;4.20;2.10;;;12.70;99.90;;;;;;5017396;28;21072;-74
2021/08/09 04:03:00;;;;;;;2.73;1.80;;;12.70;99.90;;;;;;5016334;28;20783;-74
2021/08/09 04:05:46;;;;;;;3.80;1.87;;;12.60;99.90;;;;;;5022037;28;20610;-76
2021/08/09 04:08:31;;;;;;;8.03;2.20;;;12.70;99.90;;;;;;5019870;28;20430;-75
2021/08/09 04:11:17;;;;;;;7.53;2.20;;;12.60;99.90;;;;;;5018343;28;20444;-75
2021/08/09 04:14:04;;;;;;;2.90;2.10;;;12.60;99.90;;;;;;5016384;28;20437;-74
2021/08/09 04:16:51;;;;;;;4.07;2.20;;;12.70;99.90;;;;;;5015846;28;20463;-74
2021/08/09 04:19:37;;;;;;;3.90;1.90;;;12.80;99.90;;;;;;5023632;28;20482;-74
2021/08/09 04:22:23;;;;;;;3.47;2.20;;;12.70;99.90;;;;;;5019414;28;20923;-74
2021/08/09 04:25:09;;;;;;;4.27;2.70;;;12.60;99.90;;;;;;5019685;28;20438;-74
2021/08/09 04:27:55;;;;;;;2.17;1.90;;;12.70;99.90;;;;;;5019114;28;20907;-74
2021/08/09 04:30:40;;;;;;;3.20;1.73;;;12.80;99.90;;;;;;5021700;28;20922;-75
2021/08/09 04:33:28;;;;;;;2.30;1.97;;;12.90;99.90;;;;;;5020346;28;20908;-74
2021/08/09 04:36:14;;;;;;;3.20;1.50;;;13.00;99.90;;;;;;5014456;28;20448;-74
2021/08/09 04:38:59;;;;;;;2.37;1.83;;;13.00;99.90;;;;;;5027110;28;20435;-73
2021/08/09 04:41:45;;;;;;;2.57;2.00;;;13.00;99.90;;;;;;5013589;28;20422;-74
2021/08/09 04:44:30;;;;;;;3.93;1.80;;;13.00;99.90;;;;;;5017934;28;20459;-76
2021/08/09 04:47:16;;;;;;;4.40;1.97;;;12.90;99.90;;;;;;5011176;28;20475;-73
2021/08/09 04:50:03;;;;;;;3.30;2.13;;;12.80;99.90;;;;;;5018913;28;20497;-74
2021/08/09 04:52:49;;;;;;;3.37;2.13;;;12.70;99.90;;;;;;5023779;28;20779;-75
2021/08/09 04:55:34;;;;;;;2.93;2.30;;;12.70;99.90;;;;;;5020541;28;20449;-74
2021/08/09 04:58:20;;;;;;;4.70;2.50;;;12.80;99.90;;;;;;5014297;28;20435;-74
2021/08/09 05:01:07;;;;;;;4.43;2.30;;;12.90;99.90;;;;;;5022948;28;20430;-74
2021/08/09 05:03:53;;;;;;;3.77;1.87;;;12.90;99.90;;;;;;5012870;28;20417;-75
2021/08/09 05:06:40;;;;;;;3.77;2.20;;;13.00;99.90;;;;;;5020501;28;20497;-75
2021/08/09 05:09:26;;;;;;;3.03;1.97;;;13.10;99.90;;;;;;5014764;28;20424;-74
2021/08/09 05:12:11;;;;;;;3.43;2.50;;;13.10;99.90;;;;;;5006454;28;20969;-74
2021/08/09 05:14:57;;;;;;;3.80;2.10;;;13.20;99.90;;;;;;5017910;28;20570;-75
2021/08/09 05:17:43;;;;;;;2.87;1.87;;;13.20;99.90;;;;;;5017768;28;20471;-74
2021/08/09 05:20:28;;;;;;;3.40;2.10;;;13.30;99.90;;;;;;5021951;28;20473;-74
2021/08/09 05:23:16;;;;;;;3.07;2.27;;;13.30;99.90;;;;;;5014413;28;20462;-74
2021/08/09 05:26:01;;;;;;;7.73;2.33;;;13.30;99.90;;;;;;5020057;28;20481;-74
2021/08/09 05:28:47;;;;;;;6.57;2.30;;;13.30;99.90;;;;;;5017050;28;20447;-74
2021/08/09 05:31:33;;;;;;;3.37;2.40;;;13.40;99.90;;;;;;5016803;28;20423;-73
2021/08/09 05:34:19;;;;;;;8.20;1.97;;;13.40;99.90;;;;;;5018902;28;20431;-74
2021/08/09 05:37:05;;;;;;;3.43;2.20;;;13.50;99.90;;;;;;5018227;28;20484;-74
2021/08/09 05:39:52;;;;;;;3.07;2.10;;;13.60;99.90;;;;;;5024503;28;20622;-75
2021/08/09 05:42:38;;;;;;;7.00;2.60;;;13.80;99.90;;;;;;5012527;28;20423;-74
2021/08/09 05:45:24;;;;;;;4.23;2.57;;;13.80;99.90;;;;;;5023633;28;20790;-73
2021/08/09 05:48:09;;;;;;;4.70;2.47;;;13.80;99.90;;;;;;5009450;28;20484;-73
2021/08/09 05:50:55;;;;;;;2.90;2.40;;;13.80;99.90;;;;;;5015655;28;20423;-74
2021/08/09 05:53:40;;;;;;;4.30;2.47;;;13.80;99.90;;;;;;5020885;28;20458;-74
2021/08/09 05:56:27;;;;;;;3.87;2.67;;;13.80;99.90;;;;;;5024782;28;20536;-74
2021/08/09 05:59:13;;;;;;;6.17;2.77;;;13.90;99.90;;;;;;5016631;28;20468;-74
2021/08/09 06:01:59;;;;;;;4.97;2.77;;;13.90;99.90;;;;;;5017787;28;20467;-74
2021/08/09 06:04:45;;;;;;;3.43;2.27;;;14.00;99.90;;;;;;5031369;28;20433;-74
2021/08/09 06:07:31;;;;;;;6.07;2.07;;;14.10;99.90;;;;;;5015433;28;20528;-74
2021/08/09 06:10:16;;;;;;;5.30;2.50;;;14.20;99.90;;;;;;5023808;28;20503;-74
2021/08/09 06:13:04;;;;;;;2.50;2.10;;;14.30;99.90;;;;;;5025731;28;21067;-74
2021/08/09 06:15:50;;;;;;;8.53;2.20;;;14.50;99.90;;;;;;5027008;28;21025;-74
2021/08/09 06:18:36;;;;;;;3.70;2.33;;;14.70;99.90;;;;;;5021051;28;20455;-74
2021/08/09 06:21:22;;;;;;;3.20;2.07;;;14.80;99.90;;;;;;5025365;28;20481;-74
2021/08/09 06:24:08;;;;;;;4.17;2.97;;;14.90;99.90;;;;;;5015721;28;20516;-74
2021/08/09 06:26:53;;;;;;;5.57;2.30;;;15.00;99.90;;;;;;5014355;28;20442;-75
2021/08/09 06:29:40;;;;;;;3.57;2.40;;;15.10;99.90;;;;;;5014424;28;20461;-74
2021/08/09 06:32:26;;;;;;;4.47;2.20;;;15.20;99.90;;;;;;5023703;28;20407;-74
2021/08/09 06:35:12;;;;;;;5.00;2.43;;;15.30;99.90;;;;;;5012507;28;20534;-74
2021/08/09 06:37:57;;;;;;;2.13;1.60;;;15.40;99.90;;;;;;5021373;28;20436;-75
2021/08/09 06:40:44;;;;;;;7.20;2.13;;;15.50;99.90;;;;;;5026640;28;20450;-74
2021/08/09 06:43:30;;;;;;;4.20;2.50;;;15.60;99.90;;;;;;5014470;28;20811;-74
2021/08/09 06:46:17;;;;;;;4.93;1.80;;;15.70;99.90;;;;;;5020708;28;20562;-73
2021/08/09 06:49:04;;;;;;;3.93;1.63;;;15.80;99.90;;;;;;5012865;28;20402;-73
2021/08/09 06:51:49;;;;;;;6.93;2.23;;;16.00;99.90;;;;;;5014748;28;20515;-73
2021/08/09 06:54:35;;;;;;;4.80;2.10;;;16.10;99.90;;;;;;5014873;28;20420;-73
2021/08/09 06:57:20;;;;;;;4.20;1.93;;;16.20;99.90;;;;;;5016794;28;20453;-73
2021/08/09 07:00:08;;;;;;;5.93;2.33;;;16.30;99.90;;;;;;5018977;28;21155;-73
2021/08/09 07:02:55;;;;;;;2.90;2.03;;;16.40;99.90;;;;;;5014767;28;20516;-73
2021/08/09 07:05:42;;;;;;;3.57;2.20;;;16.50;99.90;;;;;;5013679;28;20443;-73
2021/08/09 07:08:27;;;;;;;7.33;2.13;;;16.60;99.90;;;;;;5016855;28;20455;-73
2021/08/09 07:11:13;;;;;;;4.30;2.10;;;16.70;99.90;;;;;;5012996;28;20540;-74
2021/08/09 07:13:58;;;;;;;4.80;2.10;;;16.90;99.90;;;;;;5013935;28;21159;-73
2021/08/09 07:16:44;;;;;;;6.60;3.17;;;17.10;99.90;;;;;;5016781;28;20442;-74
2021/08/09 07:19:30;;;;;;;6.63;2.70;;;17.20;99.90;;;;;;5013102;28;20428;-74
2021/08/09 07:22:16;;;;;;;6.40;2.10;;;17.50;99.90;;;;;;5014103;28;21086;-75
2021/08/09 07:25:02;;;;;;;14.73;2.27;;;17.60;99.90;;;;;;5015454;28;20440;-75
2021/08/09 07:27:48;;;;;;;3.30;1.60;;;17.70;99.90;;;;;;5013128;28;20428;-74
2021/08/09 07:30:33;;;;;;;6.50;2.30;;;17.80;99.90;;;;;;5009346;28;20472;-75
2021/08/09 07:33:19;;;;;;;4.07;1.77;;;17.90;99.90;;;;;;5009630;28;20418;-74
2021/08/09 07:36:06;;;;;;;6.10;1.90;;;18.00;99.90;;;;;;5016730;28;20459;-75
2021/08/09 07:38:52;;;;;;;4.53;1.80;;;18.10;99.90;;;;;;5013532;28;20980;-75
2021/08/09 07:41:38;;;;;;;3.77;2.10;;;18.20;99.90;;;;;;5011047;28;20578;-75
2021/08/09 07:44:24;;;;;;;5.90;1.87;;;18.30;99.90;;;;;;5012631;28;20563;-74
2021/08/09 07:47:09;;;;;;;3.07;1.60;;;18.40;99.90;;;;;;5014035;28;21216;-74
2021/08/09 07:49:54;;;;;;;5.40;1.90;;;18.50;99.90;;;;;;5016300;28;20424;-74
2021/08/09 07:52:41;;;;;;;3.50;1.70;;;18.60;99.90;;;;;;5019873;28;20445;-75
2021/08/09 07:55:27;;;;;;;4.43;1.60;;;18.60;99.90;;;;;;4995928;28;20446;-75
2021/08/09 07:58:13;;;;;;;5.40;2.00;;;18.70;99.90;;;;;;5010144;28;20428;-74
2021/08/09 08:00:59;;;;;;;2.80;1.90;;;18.70;99.90;;;;;;5014564;28;20443;-74
2021/08/09 08:03:44;;;;;;;5.43;2.10;;;18.60;99.90;;;;;;5015684;28;20507;-73
2021/08/09 08:06:30;;;;;;;6.07;2.03;;;18.70;99.90;;;;;;5011846;28;20455;-73
2021/08/09 08:09:16;;;;;;;5.53;1.77;;;18.80;99.90;;;;;;5014146;28;20448;-72
2021/08/09 08:12:02;;;;;;;7.93;2.33;;;18.90;99.90;;;;;;5002001;28;20584;-73
2021/08/09 08:14:48;;;;;;;4.30;1.80;;;18.90;99.90;;;;;;5018100;28;20449;-72
2021/08/09 08:17:34;;;;;;;3.93;1.70;;;18.90;99.90;;;;;;5009232;28;20802;-72
2021/08/09 08:20:20;;;;;;;3.30;2.00;;;18.90;99.90;;;;;;5014341;28;20810;-72
2021/08/09 08:23:05;;;;;;;5.30;1.97;;;19.00;99.90;;;;;;5008649;28;20418;-72
2021/08/09 08:25:52;;;;;;;4.90;1.80;;;19.10;99.90;;;;;;5020907;28;20499;-73
2021/08/09 08:28:38;;;;;;;6.13;1.93;;;19.10;99.90;;;;;;5020169;28;20472;-72
2021/08/09 08:31:24;;;;;;;4.30;2.00;;;19.20;99.90;;;;;;5016651;28;20420;-72
2021/08/09 08:34:10;;;;;;;6.90;2.10;;;19.30;99.90;;;;;;5018348;28;20535;-73
2021/08/09 08:36:55;;;;;;;3.57;1.60;;;19.30;99.90;;;;;;5015593;28;20504;-72
2021/08/09 08:39:41;;;;;;;3.87;1.40;;;19.50;99.90;;;;;;5018338;28;20456;-72
2021/08/09 08:42:28;;;;;;;5.13;2.13;;;19.50;99.90;;;;;;5007684;28;20483;-72
2021/08/09 08:45:18;;;;;;;5.50;2.17;;;19.60;99.90;;;;;;5011351;28;20463;-73
2021/08/09 08:48:06;;;;;;;5.57;2.00;;;19.70;99.90;;;;;;5018188;28;20451;-73
2021/08/09 08:50:52;;;;;;;5.00;2.00;;;19.80;99.90;;;;;;5014288;28;20528;-73
2021/08/09 08:53:38;;;;;;;4.43;1.63;;;19.90;99.90;;;;;;5014068;28;20426;-74
2021/08/09 08:56:24;;;;;;;6.50;1.70;;;20.20;99.90;;;;;;5013684;28;20458;-74
2021/08/09 08:59:14;;;;;;;4.00;2.10;;;20.20;99.90;;;;;;5014205;28;20894;-74
2021/08/09 09:02:00;;;;;;;4.77;2.03;;;20.30;99.90;;;;;;5013834;28;20851;-74
2021/08/09 09:04:49;;;;;;;8.30;1.57;;;20.40;99.90;;;;;;5001939;28;20505;-74
2021/08/09 09:07:35;;;;;;;4.33;1.83;;;20.50;99.90;;;;;;5013677;28;20452;-74
2021/08/09 09:10:26;;;;;;;4.70;1.83;;;20.50;99.90;;;;;;5025561;28;20475;-75
2021/08/09 09:13:15;;;;;;;2.80;1.47;;;20.60;99.90;;;;;;5019087;28;20395;-73
2021/08/09 09:16:07;;;;;;;3.60;2.10;;;20.60;99.90;;;;;;5013487;28;20987;-72
2021/08/09 09:18:55;;;;;;;4.50;1.60;;;20.60;99.50;;;;;;5016423;28;20433;-72
2021/08/09 09:21:41;;;;;;;6.30;1.97;;;20.60;99.90;;;;;;5022071;28;20987;-73
2021/08/09 09:24:27;;;;;;;5.33;1.67;;;20.40;98.10;;;;;;5012478;28;20839;-74
2021/08/09 09:27:28;;;;;;;3.00;1.70;;;20.50;99.50;;;;;;5019242;28;20933;-72
2021/08/09 09:30:27;;;;;;;5.07;1.63;;;20.50;97.30;;;;;;5024000;28;20437;-72
2021/08/09 09:33:14;;;;;;;2.63;1.47;;;20.60;99.20;;;;;;5013198;28;20971;-72
2021/08/09 09:36:03;;;;;;;3.30;1.40;;;20.80;99.90;;;;;;5025505;28;20454;-72
2021/08/09 09:38:51;;;;;;;5.40;1.60;;;20.80;95.60;;;;;;5022858;28;20455;-73
2021/08/09 09:41:36;;;;;;;2.67;1.30;;;20.80;95.50;;;;;;5010947;28;20469;-73
2021/08/09 09:44:23;;;;;;;2.90;1.30;;;20.80;95.50;;;;;;5021201;28;20430;-73
2021/08/09 09:47:24;;;;;;;3.40;1.60;;;20.80;94.10;;;;;;5013267;28;20488;-74
2021/08/09 09:50:23;;;;;;;3.17;1.30;;;21.00;96.10;;;;;;5019720;28;20442;-74
2021/08/09 09:53:18;;;;;;;4.77;1.43;;;21.10;96.10;;;;;;5027287;28;20401;-73
2021/08/09 09:56:04;;;;;;;2.57;1.53;;;21.20;92.80;;;;;;5020166;28;20473;-74
2021/08/09 09:58:51;;;;;;;6.33;2.03;;;21.40;92.80;;;;;;5023772;28;20536;-73
2021/08/09 10:01:37;;;;;;;11.63;2.07;;;21.40;92.80;;;;;;5028487;28;20454;-73
2021/08/09 10:04:25;;;;;;;3.83;1.40;;;21.50;91.80;;;;;;5019918;28;21262;-73
2021/08/09 10:07:13;;;;;;;3.37;1.30;;;21.60;91.80;;;;;;5007192;28;20486;-74
2021/08/09 10:10:01;;;;;;;3.80;1.43;;;21.60;83.90;;;;;;5013393;28;20422;-74
2021/08/09 10:12:47;;;;;;;4.03;1.70;;;21.70;85.30;;;;;;5010484;28;20447;-74
2021/08/09 10:15:33;;;;;;;6.63;1.53;;;21.80;86.40;;;;;;5025490;28;20430;-74
2021/08/09 10:18:24;;;;;;;3.30;1.53;;;21.90;86.80;;;;;;5024377;28;20434;-74
2021/08/09 10:21:10;;;;;;;3.93;1.40;;;22.00;80.60;;;;;;5026418;28;20445;-74
2021/08/09 10:23:57;;;;;;;2.80;1.40;;;22.00;79.90;;;;;;5019252;28;20445;-74
2021/08/09 10:26:48;;;;;;;3.33;1.23;;;22.00;78.10;;;;;;5024640;28;20453;-73
2021/08/09 10:29:34;;;;;;;4.57;1.30;;;22.10;79.30;;;;;;5027260;28;20422;-72
2021/08/09 10:32:21;;;;;;;3.97;1.27;;;22.20;75.20;;;;;;5027766;28;20425;-72
2021/08/09 10:36:02;;;;;;;2.93;1.37;;;22.30;74.60;;;;;;5017748;28;20450;-72
2021/08/09 10:38:49;;;;;;;3.50;1.47;;;22.40;70.60;;;;;;5022554;28;20430;-72
2021/08/09 10:41:38;;;;;;;2.33;1.50;;;22.60;70.30;;;;;;5025082;28;20549;-72
2021/08/09 10:44:25;;;;;;;4.67;1.50;;;22.70;66.90;;;;;;5014627;28;20458;-72
2021/08/09 10:48:05;;;;;;;4.03;1.23;;;22.80;65.20;;;;;;5019610;28;20463;-73
2021/08/09 10:50:54;;;;;;;4.20;1.40;;;23.00;64.20;;;;;;5003551;28;20864;-72
2021/08/09 10:53:47;;;;;;;6.03;1.60;;;23.10;62.50;;;;;;5019215;28;20780;-73
2021/08/09 10:56:47;;;;;;;3.27;1.30;;;22.90;60.60;;;;;;5020047;28;20531;-73
2021/08/09 10:59:47;;;;;;;3.77;1.30;;;22.80;59.70;;;;;;5018361;28;20421;-72
2021/08/09 11:02:35;;;;;;;3.87;1.43;;;22.60;60.90;;;;;;5017043;28;20646;-71
2021/08/09 11:05:29;;;;;;;3.43;1.40;;;22.50;64.90;;;;;;5019597;28;20439;-74
2021/08/09 11:08:41;;;;;;;4.30;1.40;;;22.60;68.20;;;;;;5009196;28;20453;-73
2021/08/09 11:11:27;;;;;;;5.20;1.40;;;22.70;66.00;;;;;;5013693;28;20423;-74
2021/08/09 11:14:15;;;;;;;8.43;1.47;;;22.80;64.60;;;;;;5019496;28;20752;-74
2021/08/09 11:17:01;;;;;;;5.67;1.50;;;22.80;60.50;;;;;;5004961;28;20466;-73
2021/08/09 11:19:46;;;;;;;5.10;1.67;;;22.60;61.30;;;;;;5021183;28;20440;-72
2021/08/09 11:22:32;;;;;;;3.10;1.30;;;22.50;62.20;;;;;;5021412;28;20450;-72
2021/08/09 11:25:28;;;;;;;3.73;0.87;;;22.30;61.50;;;;;;5020252;28;20974;-72
2021/08/09 11:28:16;;;;;;;3.50;1.60;;;22.30;64.60;;;;;;5010775;28;20864;-72
2021/08/09 11:31:04;;;;;;;3.07;1.30;;;22.20;65.10;;;;;;5013008;28;20453;-72
2021/08/09 11:33:51;;;;;;;6.60;1.97;;;22.20;63.30;;;;;;5018101;28;20465;-72
2021/08/09 11:36:37;;;;;;;4.60;1.33;;;22.10;68.50;;;;;;5017951;28;20474;-72
2021/08/09 11:39:39;;;;;;;6.17;1.77;;;22.10;69.30;;;;;;5018653;28;20443;-74
2021/08/09 11:42:25;;;;;;;2.77;1.23;;;22.10;71.00;;;;;;5015172;28;21041;-73
2021/08/09 11:45:24;;;;;;;3.13;1.63;;;22.00;69.00;;;;;;5009688;28;20442;-73
2021/08/09 11:48:11;;;;;;;4.80;1.63;;;22.00;66.90;;;;;;5018076;28;20420;-74
2021/08/09 11:51:02;;;;;;;5.10;1.10;;;21.90;69.70;;;;;;5015535;28;20450;-74
2021/08/09 11:53:50;;;;;;;3.90;1.33;;;21.90;68.10;;;;;;5012906;28;20492;-74
2021/08/09 11:56:38;;;;;;;4.37;1.70;;;22.00;70.00;;;;;;5022241;28;20449;-73
2021/08/09 11:59:23;;;;;;;4.00;1.60;;;22.10;71.20;;;;;;5018017;28;20437;-73
2021/08/09 12:02:10;;;;;;;6.93;2.30;;;22.20;68.60;;;;;;5009031;28;20480;-74
2021/08/09 12:04:57;;;;;;;3.80;1.67;;;22.10;68.40;;;;;;5018880;28;20396;-73
2021/08/09 12:07:42;;;;;;;2.80;1.40;;;22.10;66.60;;;;;;5019351;28;20443;-73
2021/08/09 12:10:28;;;;;;;7.07;1.57;;;21.90;67.50;;;;;;5013239;28;20452;-74
2021/08/09 12:13:29;;;;;;;3.40;1.50;;;21.80;69.30;;;;;;5017387;28;20435;-74
2021/08/09 12:16:16;;;;;;;7.50;2.00;;;21.70;69.90;;;;;;5014872;28;20484;-73
2021/08/09 12:19:02;;;;;;;5.10;1.63;;;21.70;71.90;;;;;;5009632;28;20446;-74
2021/08/09 12:21:49;;;;;;;3.93;1.90;;;21.80;73.40;;;;;;5016804;28;20848;-74
2021/08/09 12:24:35;;;;;;;3.77;1.57;;;22.00;74.70;;;;;;5021784;28;20422;-74
2021/08/09 12:27:22;;;;;;;4.83;1.77;;;22.10;70.00;;;;;;5011517;28;20465;-74
2021/08/09 12:30:11;;;;;;;3.07;1.63;;;22.20;72.70;;;;;;5016151;28;20563;-74
2021/08/09 12:33:01;;;;;;;4.67;1.67;;;22.40;70.60;;;;;;5019291;28;20972;-73
2021/08/09 12:35:47;;;;;;;3.40;1.87;;;22.60;72.80;;;;;;5018084;28;20562;-74
2021/08/09 12:38:40;;;;;;;3.43;1.20;;;22.70;71.60;;;;;;5021098;28;20476;-74
2021/08/09 12:41:28;;;;;;;4.53;1.53;;;22.80;69.00;;;;;;5023943;28;20497;-73
2021/08/09 12:44:13;;;;;;;5.00;1.63;;;22.90;68.90;;;;;;5019698;28;20418;-74
2021/08/09 12:46:59;;;;;;;3.70;1.60;;;22.90;66.50;;;;;;5024719;28;20813;-74
2021/08/09 12:49:45;;;;;;;4.77;1.70;;;22.90;67.30;;;;;;5029954;28;20457;-73
2021/08/09 12:52:30;;;;;;;3.37;1.57;;;22.90;70.50;;;;;;5022721;28;20423;-74
2021/08/09 12:55:18;;;;;;;4.53;1.80;;;22.90;67.30;;;;;;5025491;28;20443;-73
2021/08/09 12:58:06;;;;;;;3.70;1.40;;;22.90;66.50;;;;;;5012455;28;20475;-74
2021/08/09 13:00:51;;;;;;;5.30;1.93;;;22.80;70.50;;;;;;5019617;28;20462;-75
2021/08/09 13:03:37;;;;;;;4.80;2.00;;;22.80;69.00;;;;;;5013546;28;20478;-74
2021/08/09 13:06:23;;;;;;;4.03;1.60;;;22.70;70.80;;;;;;5019862;28;20473;-75
2021/08/09 13:09:09;;;;;;;3.47;1.70;;;22.70;72.30;;;;;;5024543;28;20450;-75
2021/08/09 13:11:56;;;;;;;5.00;1.60;;;22.60;65.60;;;;;;5009701;28;21052;-75
2021/08/09 13:14:41;;;;;;;4.13;1.60;;;22.40;66.10;;;;;;5013552;28;20418;-75
2021/08/09 13:17:27;;;;;;;2.90;1.47;;;22.50;68.70;;;;;;5013894;28;20529;-76
2021/08/09 13:20:13;;;;;;;3.33;1.73;;;22.50;70.40;;;;;;5013893;28;20429;-75
2021/08/09 13:23:00;;;;;;;6.07;1.57;;;22.50;69.20;;;;;;5013719;28;20858;-75
2021/08/09 13:25:46;;;;;;;4.30;1.40;;;22.50;68.20;;;;;;5013262;28;20970;-75
2021/08/09 13:28:34;;;;;;;5.80;2.97;;;22.60;67.50;;;;;;5013692;28;20400;-75
2021/08/09 13:31:20;;;;;;;8.37;4.90;;;22.60;68.80;;;;;;5013565;28;20482;-74
2021/08/09 13:34:05;;;;;;;7.13;3.50;;;22.70;68.60;;;;;;5012861;28;20425;-75
2021/08/09 13:36:51;;;;;;;3.57;2.40;;;22.60;70.10;;;;;;5012984;28;20507;-75
2021/08/09 13:39:36;;;;;;;6.30;2.30;;;22.60;74.20;;;;;;5014790;28;20422;-75
2021/08/09 13:42:22;;;;;;;5.37;2.53;;;22.60;70.50;;;;;;5024675;28;20440;-75
2021/08/09 13:45:10;;;;;;;4.67;1.73;;;22.40;70.80;;;;;;5032648;28;20884;-75
2021/08/09 13:47:58;;;;;;;3.07;1.67;;;22.30;71.70;;;;;;5032914;28;20974;-75
2021/08/09 13:50:44;;;;;;;6.10;1.90;;;22.30;74.90;;;;;;5032967;28;20966;-73
2021/08/09 13:53:29;;;;;;;4.10;1.90;;;22.30;74.70;;;;;;5033305;28;20433;-74
2021/08/09 13:56:15;;;;;;;3.30;1.50;;;22.20;70.00;;;;;;5032512;28;20455;-74
2021/08/09 13:59:01;;;;;;;2.90;1.50;;;22.20;71.60;;;;;;5032973;28;20528;-75
2021/08/09 14:01:47;;;;;;;5.00;1.50;;;22.10;74.30;;;;;;5032785;28;20533;-75
2021/08/09 14:04:33;;;;;;;4.90;1.60;;;22.00;70.90;;;;;;5032310;28;20979;-75
2021/08/09 14:07:19;;;;;;;3.93;1.50;;;22.00;71.60;;;;;;5032646;28;20449;-75
2021/08/09 14:10:07;;;;;;;2.73;1.30;;;22.00;71.50;;;;;;5028479;28;20565;-75
2021/08/09 14:12:53;;;;;;;2.77;1.47;;;21.90;77.30;;;;;;5016221;28;20441;-75
2021/08/09 14:15:38;;;;;;;3.43;1.43;;;21.80;71.50;;;;;;5032098;28;20439;-75
2021/08/09 14:18:25;;;;;;;3.50;1.30;;;21.80;70.20;;;;;;5032369;28;20428;-75
2021/08/09 14:21:11;;;;;;;8.33;1.57;;;21.70;72.80;;;;;;5032390;28;20422;-75
2021/08/09 14:23:56;;;;;;;5.17;1.90;;;21.70;72.10;;;;;;5032390;28;20525;-75
2021/08/09 14:26:42;;;;;;;3.03;1.40;;;21.70;79.10;;;;;;5031923;28;20449;-75
2021/08/09 14:29:27;;;;;;;3.53;2.23;;;21.70;79.70;;;;;;5032429;28;20436;-74
2021/08/09 14:32:13;;;;;;;3.77;1.90;;;21.60;83.80;;;;;;5032131;28;20673;-75